createdAt,value
2023-01-19T00:00:14.479Z,119.30
2023-01-19T00:05:19.997Z,133.52
2023-01-19T00:10:25.763Z,144.32
2023-01-19T00:15:31.739Z,139.17
2023-01-19T00:20:37.564Z,148.00
2023-01-19T00:25:46.146Z,148.90
2023-01-19T00:30:53.707Z,138.23
2023-01-19T00:35:59.271Z,157.70
2023-01-19T00:41:05.051Z,166.90
2023-01-19T00:46:11.635Z,163.70
2023-01-19T00:56:23.165Z,146.65
2023-01-19T01:01:46.123Z,127.32
2023-01-19T01:06:51.855Z,127.13
2023-01-19T01:11:58.307Z,117.75
2023-01-19T01:17:06.027Z,120.70
2023-01-19T01:22:12.324Z,111.87
2023-01-19T01:27:18.464Z,110.78
2023-01-19T01:32:24.046Z,112.75
2023-01-19T01:37:29.804Z,120.85
2023-01-19T01:42:36.322Z,108.50
2023-01-19T01:47:49.623Z,120.32
2023-01-19T01:53:07.487Z,109.47
2023-01-19T01:58:14.461Z,113.05
2023-01-19T02:08:49.228Z,106.15
2023-01-19T02:13:54.833Z,115.88
2023-01-19T02:19:02.646Z,105.73
2023-01-19T02:24:09.578Z,100.97
2023-01-19T02:29:19.547Z,98.00
2023-01-19T02:34:25.261Z,102.47
2023-01-19T02:39:33.933Z,107.83
2023-01-19T02:44:40.000Z,101.22
2023-01-19T02:49:45.666Z,83.97
2023-01-19T02:54:50.977Z,111.23
2023-01-19T03:00:03.478Z,102.72
2023-01-19T03:05:15.416Z,105.20
2023-01-19T03:10:27.513Z,97.15
2023-01-19T03:15:38.148Z,87.72
2023-01-19T03:20:44.964Z,102.85
2023-01-19T03:31:01.602Z,80.82
2023-01-19T03:36:10.239Z,110.30
2023-01-19T03:41:18.389Z,101.05
2023-01-19T03:46:24.479Z,109.45
2023-01-19T03:51:30.397Z,109.30
2023-01-19T03:56:35.983Z,112.63
2023-01-19T04:01:41.510Z,83.80
2023-01-19T04:06:47.445Z,92.95
2023-01-19T04:11:54.147Z,90.13
2023-01-19T04:16:59.508Z,107.95
2023-01-19T04:22:06.348Z,74.18
2023-01-19T04:27:12.260Z,92.78
2023-01-19T04:32:17.972Z,101.60
2023-01-19T04:37:23.814Z,69.43
2023-01-19T04:42:29.720Z,77.90
2023-01-19T04:47:35.303Z,87.23
2023-01-19T04:52:41.294Z,89.70
2023-01-19T04:57:46.954Z,81.03
2023-01-19T05:02:52.679Z,91.20
2023-01-19T05:07:58.471Z,96.10
2023-01-19T05:13:04.591Z,88.00
2023-01-19T05:18:10.315Z,91.75
2023-01-19T05:23:15.946Z,78.35
2023-01-19T05:28:22.672Z,87.43
2023-01-19T05:33:29.140Z,93.38
2023-01-19T05:38:35.761Z,103.97
2023-01-19T05:43:41.639Z,108.10
2023-01-19T05:48:47.187Z,108.18
2023-01-19T05:53:52.765Z,104.75
2023-01-19T05:58:58.064Z,106.00
2023-01-19T06:04:03.663Z,104.75
2023-01-19T06:09:09.539Z,105.83
2023-01-19T06:14:16.104Z,101.23
2023-01-19T06:19:22.298Z,104.72
2023-01-19T06:29:33.506Z,101.63
2023-01-19T06:34:41.602Z,92.07
2023-01-19T06:39:47.441Z,97.32
2023-01-19T06:44:53.214Z,88.53
2023-01-19T06:49:59.021Z,93.73
2023-01-19T06:55:04.674Z,99.50
2023-01-19T07:00:10.743Z,87.07
2023-01-19T07:05:16.940Z,91.40
2023-01-19T07:10:22.840Z,94.22
2023-01-19T07:15:28.296Z,86.53
2023-01-19T07:20:34.748Z,87.78
2023-01-19T07:30:47.808Z,85.78
2023-01-19T07:35:54.179Z,82.80
2023-01-19T07:41:03.634Z,94.38
2023-01-19T07:46:09.907Z,85.90
2023-01-19T07:51:19.526Z,83.10
2023-01-19T07:56:26.053Z,87.05
2023-01-19T08:06:39.867Z,81.15
2023-01-19T08:11:45.322Z,80.07
2023-01-19T08:16:51.172Z,70.20
2023-01-19T08:21:58.126Z,77.33
2023-01-19T08:27:04.997Z,69.10
2023-01-19T08:32:10.778Z,65.70
2023-01-19T08:37:16.884Z,68.85
2023-01-19T08:42:22.568Z,76.40
2023-01-19T08:47:28.505Z,70.57
2023-01-19T08:52:34.255Z,74.30
2023-01-19T08:57:40.059Z,64.80
2023-01-19T09:02:45.861Z,60.42
2023-01-19T09:07:53.279Z,60.93
2023-01-19T09:12:59.320Z,63.20
2023-01-19T09:18:06.141Z,68.35
2023-01-19T09:28:19.399Z,66.07
2023-01-19T09:33:26.138Z,69.45
2023-01-19T09:43:42.893Z,55.40
2023-01-19T09:48:50.175Z,62.33
2023-01-19T09:53:59.648Z,57.60
2023-01-19T09:59:17.622Z,62.25
2023-01-19T10:04:41.974Z,70.18
2023-01-19T10:09:49.204Z,71.50
2023-01-19T10:15:03.195Z,58.40
2023-01-19T10:20:14.116Z,63.00
2023-01-19T10:25:22.846Z,63.10
2023-01-19T10:30:30.418Z,60.20
2023-01-19T10:35:37.880Z,53.67
2023-01-19T10:40:55.467Z,67.60
2023-01-19T10:46:01.318Z,53.63
2023-01-19T10:51:08.009Z,67.17
2023-01-19T11:01:23.900Z,67.53
2023-01-19T11:06:32.146Z,72.40
2023-01-19T11:11:44.044Z,48.17
2023-01-19T11:16:54.673Z,51.60
2023-01-19T11:22:24.233Z,56.70
2023-01-19T11:27:30.582Z,61.15
2023-01-19T11:32:38.495Z,36.78
2023-01-19T11:37:44.722Z,55.80
2023-01-19T11:42:50.234Z,52.75
2023-01-19T11:47:55.933Z,56.10
2023-01-19T11:53:01.711Z,55.40
2023-01-19T11:58:07.971Z,53.97
2023-01-19T12:03:21.013Z,48.40
2023-01-19T12:08:37.160Z,38.30
2023-01-19T12:13:45.499Z,50.40
2023-01-19T12:18:53.910Z,40.00
2023-01-19T12:24:07.179Z,51.17
2023-01-19T12:29:17.903Z,52.47
2023-01-19T12:34:32.701Z,68.30
2023-01-19T12:39:50.196Z,61.83
2023-01-19T12:45:24.992Z,54.47
2023-01-19T12:50:33.190Z,56.20
2023-01-19T12:55:40.604Z,57.22
2023-01-19T13:00:48.213Z,64.43
2023-01-19T13:05:56.166Z,31.45
2023-01-19T13:11:04.833Z,47.53
2023-01-19T13:16:29.081Z,51.78
2023-01-19T13:21:44.359Z,60.55
2023-01-19T13:26:53.268Z,55.97
2023-01-19T13:32:04.102Z,49.83
2023-01-19T13:37:15.575Z,68.63
2023-01-19T13:42:41.060Z,43.00
2023-01-19T13:47:48.319Z,66.63
2023-01-19T13:52:56.920Z,62.10
2023-01-19T13:58:03.245Z,65.63
2023-01-19T14:03:14.730Z,36.67
2023-01-19T14:08:21.460Z,70.20
2023-01-19T14:13:28.770Z,61.25
2023-01-19T14:18:38.641Z,73.90
2023-01-19T14:23:59.035Z,57.67
2023-01-19T14:29:10.402Z,68.93
2023-01-19T14:34:33.762Z,45.50
2023-01-19T14:39:39.512Z,61.70
2023-01-19T14:44:49.535Z,68.10
2023-01-19T14:49:57.335Z,61.75
2023-01-19T14:55:05.640Z,64.75
2023-01-19T15:00:28.701Z,56.67
2023-01-19T15:05:35.079Z,76.60
2023-01-19T15:10:40.903Z,58.70
2023-01-19T15:15:46.410Z,54.80
2023-01-19T15:20:56.789Z,37.33
2023-01-19T15:26:03.574Z,70.43
2023-01-19T15:31:09.408Z,70.03
2023-01-19T15:36:19.626Z,59.07
2023-01-19T15:41:29.104Z,69.03
2023-01-19T15:46:34.980Z,54.50
2023-01-19T15:51:40.713Z,37.93
2023-01-19T15:56:46.405Z,53.33
2023-01-19T16:01:52.603Z,68.23
2023-01-19T16:12:03.717Z,41.38
2023-01-19T16:17:09.698Z,42.87
2023-01-19T16:22:15.219Z,57.30
2023-01-19T16:27:20.552Z,58.13
2023-01-19T16:32:26.244Z,44.88
2023-01-19T16:37:32.109Z,61.92
2023-01-19T16:42:37.907Z,63.58
2023-01-19T16:47:43.615Z,35.50
2023-01-19T16:52:49.050Z,41.50
2023-01-19T16:57:54.435Z,36.30
2023-01-19T17:02:59.952Z,44.00
2023-01-19T17:08:05.528Z,58.00
2023-01-19T17:13:11.093Z,53.05
2023-01-19T17:18:17.106Z,35.57
2023-01-19T17:23:22.713Z,61.57
2023-01-19T17:28:28.697Z,73.53
2023-01-19T17:33:33.937Z,59.90
2023-01-19T17:38:39.406Z,44.17
2023-01-19T17:43:45.532Z,38.17
2023-01-19T17:48:55.241Z,76.13
2023-01-19T17:54:01.582Z,40.20
2023-01-19T17:59:09.256Z,77.00
2023-01-19T18:04:15.054Z,42.33
2023-01-19T18:09:21.066Z,72.57
2023-01-19T18:14:26.680Z,87.03
2023-01-19T18:19:31.832Z,80.13
2023-01-19T18:24:37.699Z,79.43
2023-01-19T18:29:43.125Z,94.10
2023-01-19T18:34:48.575Z,108.88
2023-01-19T18:39:55.898Z,87.85
2023-01-19T18:45:01.552Z,89.72
2023-01-19T18:50:07.653Z,112.43
2023-01-19T18:55:13.228Z,70.53
2023-01-19T19:00:20.022Z,116.00
2023-01-19T19:10:30.575Z,101.93
2023-01-19T19:15:36.868Z,115.07
2023-01-19T19:20:46.007Z,97.63
2023-01-19T19:25:51.285Z,94.13
2023-01-19T19:31:08.601Z,94.72
2023-01-19T19:36:14.342Z,92.05
2023-01-19T19:41:21.886Z,105.33
2023-01-19T19:46:27.894Z,108.45
2023-01-19T19:51:34.779Z,106.70
2023-01-19T19:56:40.438Z,74.95
2023-01-19T20:01:48.410Z,88.35
2023-01-19T20:06:53.899Z,73.10
2023-01-19T20:12:00.206Z,85.43
2023-01-19T20:22:12.746Z,128.77
2023-01-19T20:27:18.060Z,78.90
2023-01-19T20:32:23.399Z,109.07
2023-01-19T20:37:29.033Z,111.68
2023-01-19T20:42:34.479Z,87.93
2023-01-19T20:47:40.346Z,93.17
2023-01-19T20:52:46.090Z,116.90
2023-01-19T20:57:51.544Z,115.63
2023-01-19T21:02:58.031Z,111.80
2023-01-19T21:13:08.806Z,107.57
2023-01-19T21:18:14.237Z,106.60
2023-01-19T21:23:21.352Z,102.90
2023-01-19T21:28:26.673Z,87.35
2023-01-19T21:33:34.417Z,115.15
2023-01-19T21:38:41.251Z,119.70
2023-01-19T21:43:47.554Z,113.53
2023-01-19T21:54:00.938Z,119.78
2023-01-19T21:59:07.804Z,128.25
2023-01-19T22:04:13.619Z,132.20
2023-01-19T22:09:19.407Z,123.33
2023-01-19T22:14:25.619Z,125.37
2023-01-19T22:19:31.362Z,141.73
2023-01-19T22:24:36.793Z,130.90
2023-01-19T22:29:42.190Z,126.70
2023-01-19T22:34:47.761Z,157.07
2023-01-19T22:39:53.388Z,165.77
2023-01-19T22:44:59.781Z,124.93
2023-01-19T22:50:05.568Z,137.48
2023-01-19T22:55:11.725Z,173.13
2023-01-19T23:00:17.673Z,161.32
2023-01-19T23:05:23.369Z,145.83
2023-01-19T23:10:29.025Z,112.00
2023-01-19T23:15:36.403Z,154.13
2023-01-19T23:20:41.773Z,145.25
2023-01-19T23:25:47.727Z,131.82
2023-01-19T23:30:53.768Z,201.43
2023-01-19T23:35:59.912Z,198.70
2023-01-19T23:41:05.636Z,163.30
2023-01-19T23:46:12.165Z,162.00
2023-01-19T23:51:19.632Z,179.65
2023-01-19T23:56:27.341Z,185.10
